createdAt,value
2018-11-06T00:01:12.955Z,3.53
2018-11-06T00:03:46.940Z,3.40
2018-11-06T00:06:16.417Z,3.67
2018-11-06T00:08:45.367Z,3.43
2018-11-06T00:11:14.807Z,3.83
2018-11-06T00:13:44.036Z,4.17
2018-11-06T00:16:13.453Z,3.57
2018-11-06T00:18:43.661Z,4.13
2018-11-06T00:21:12.872Z,4.07
2018-11-06T00:23:42.048Z,4.10
2018-11-06T00:26:11.840Z,3.60
2018-11-06T00:28:41.416Z,3.80
2018-11-06T00:31:10.634Z,4.00
2018-11-06T00:33:39.793Z,4.43
2018-11-06T00:36:09.055Z,3.70
2018-11-06T00:38:38.692Z,4.10
2018-11-06T00:41:08.559Z,3.77
2018-11-06T00:43:38.461Z,3.50
2018-11-06T00:46:07.935Z,3.50
2018-11-06T00:48:37.094Z,3.60
2018-11-06T00:51:06.630Z,3.63
2018-11-06T00:53:35.800Z,3.93
2018-11-06T00:56:05.295Z,4.10
2018-11-06T00:58:34.584Z,3.77
2018-11-06T01:01:04.583Z,3.90
2018-11-06T01:04:38.601Z,3.83
2018-11-06T01:07:07.841Z,3.90
2018-11-06T01:09:37.068Z,4.07
2018-11-06T01:12:06.232Z,3.70
2018-11-06T01:14:35.785Z,3.87
2018-11-06T01:17:05.794Z,3.63
2018-11-06T01:19:35.539Z,3.43
2018-11-06T01:22:05.620Z,3.97
2018-11-06T01:24:34.808Z,3.90
2018-11-06T01:27:04.112Z,4.17
2018-11-06T01:29:33.319Z,4.33
2018-11-06T01:32:02.889Z,3.70
2018-11-06T01:34:32.123Z,3.53
2018-11-06T01:37:01.349Z,4.07
2018-11-06T01:39:30.574Z,4.10
2018-11-06T01:41:59.877Z,4.17
2018-11-06T01:44:29.129Z,4.40
2018-11-06T01:46:58.339Z,4.47
2018-11-06T01:49:27.849Z,4.23
2018-11-06T01:51:57.067Z,4.23
2018-11-06T01:54:26.458Z,4.43
2018-11-06T01:56:55.708Z,4.60
2018-11-06T01:59:24.929Z,4.57
2018-11-06T02:01:54.112Z,4.60
2018-11-06T02:04:23.268Z,4.73
2018-11-06T02:06:52.490Z,5.00
2018-11-06T02:09:21.691Z,4.70
2018-11-06T02:11:50.964Z,4.83
2018-11-06T02:14:20.167Z,4.50
2018-11-06T02:16:49.424Z,4.20
2018-11-06T02:19:18.674Z,4.03
2018-11-06T02:21:47.860Z,4.87
2018-11-06T02:24:17.032Z,4.70
2018-11-06T02:26:46.287Z,4.47
2018-11-06T02:29:15.472Z,4.70
2018-11-06T02:31:44.693Z,4.60
2018-11-06T02:34:14.048Z,4.73
2018-11-06T02:36:43.510Z,4.83
2018-11-06T02:39:13.456Z,4.50
2018-11-06T02:41:42.659Z,4.30
2018-11-06T02:44:11.947Z,4.40
2018-11-06T02:46:41.903Z,4.03
2018-11-06T02:49:11.111Z,4.43
2018-11-06T02:51:40.279Z,4.20
2018-11-06T02:54:09.556Z,5.13
2018-11-06T02:56:38.864Z,4.67
2018-11-06T02:59:08.230Z,4.07
2018-11-06T03:01:37.439Z,4.30
2018-11-06T03:04:06.661Z,4.10
2018-11-06T03:06:35.851Z,3.73
2018-11-06T03:09:06.321Z,4.07
2018-11-06T03:11:36.049Z,4.03
2018-11-06T03:14:06.622Z,5.10
2018-11-06T03:16:35.844Z,4.53
2018-11-06T03:19:06.030Z,3.93
2018-11-06T03:21:35.250Z,3.87
2018-11-06T03:24:05.191Z,4.10
2018-11-06T03:26:35.347Z,4.30
2018-11-06T03:29:04.967Z,4.10
2018-11-06T03:31:34.343Z,3.63
2018-11-06T03:34:03.286Z,4.30
2018-11-06T03:36:32.544Z,3.70
2018-11-06T03:39:01.780Z,4.07
2018-11-06T03:41:30.712Z,3.90
2018-11-06T03:43:59.900Z,4.50
2018-11-06T03:46:29.146Z,4.00
2018-11-06T03:48:58.460Z,3.80
2018-11-06T03:51:27.875Z,4.20
2018-11-06T03:53:57.331Z,4.60
2018-11-06T03:56:26.535Z,3.97
2018-11-06T03:58:55.790Z,4.07
2018-11-06T04:01:24.962Z,3.87
2018-11-06T04:03:54.299Z,4.20
2018-11-06T04:06:23.491Z,3.73
2018-11-06T04:08:52.718Z,4.13
2018-11-06T04:11:22.153Z,4.30
2018-11-06T04:13:51.414Z,3.70
2018-11-06T04:16:20.629Z,3.73
2018-11-06T04:18:49.555Z,4.20
2018-11-06T04:21:23.384Z,3.77
2018-11-06T04:23:52.598Z,4.10
2018-11-06T04:26:21.800Z,4.33
2018-11-06T04:28:51.016Z,4.33
2018-11-06T04:31:20.277Z,4.07
2018-11-06T04:33:49.535Z,4.30
2018-11-06T04:36:18.746Z,4.03
2018-11-06T04:38:47.950Z,3.43
2018-11-06T04:41:17.132Z,3.30
2018-11-06T04:43:46.350Z,3.70
2018-11-06T04:46:15.621Z,4.03
2018-11-06T04:48:44.874Z,3.77
2018-11-06T04:51:14.301Z,4.30
2018-11-06T04:53:43.620Z,4.03
2018-11-06T04:56:12.854Z,3.23
2018-11-06T04:58:42.053Z,4.23
2018-11-06T05:01:11.564Z,3.70
2018-11-06T05:03:47.099Z,3.77
2018-11-06T05:06:17.573Z,3.77
2018-11-06T05:08:46.835Z,4.03
2018-11-06T05:11:16.079Z,3.50
2018-11-06T05:13:45.262Z,4.00
2018-11-06T05:16:14.944Z,4.30
2018-11-06T05:18:44.137Z,3.87
2018-11-06T05:21:13.384Z,3.60
2018-11-06T05:23:42.570Z,3.60
2018-11-06T05:26:11.780Z,4.30
2018-11-06T05:28:41.149Z,3.67
2018-11-06T05:31:10.345Z,3.93
2018-11-06T05:33:39.667Z,4.17
2018-11-06T05:36:08.921Z,3.80
2018-11-06T05:38:38.378Z,3.83
2018-11-06T05:41:08.376Z,4.50
2018-11-06T05:43:38.324Z,6.17
2018-11-06T05:46:08.032Z,4.80
2018-11-06T05:48:37.321Z,4.63
2018-11-06T05:51:06.528Z,4.60
2018-11-06T05:53:35.951Z,4.43
2018-11-06T05:56:05.928Z,5.40
2018-11-06T05:58:35.136Z,7.13
2018-11-06T06:01:04.356Z,8.20
2018-11-06T06:03:33.619Z,6.20
2018-11-06T06:06:02.911Z,6.27
2018-11-06T06:08:32.200Z,5.07
2018-11-06T06:11:01.626Z,4.47
2018-11-06T06:13:31.374Z,5.00
2018-11-06T06:16:00.921Z,4.23
2018-11-06T06:18:30.794Z,4.57
2018-11-06T06:21:00.293Z,4.70
2018-11-06T06:23:29.691Z,4.43
2018-11-06T06:25:58.960Z,3.93
2018-11-06T06:28:28.277Z,4.47
2018-11-06T06:30:57.684Z,3.73
2018-11-06T06:33:26.859Z,5.13
2018-11-06T06:35:56.121Z,5.90
2018-11-06T06:38:25.582Z,5.70
2018-11-06T06:40:56.736Z,4.90
2018-11-06T06:43:26.045Z,5.33
2018-11-06T06:45:55.342Z,5.40
2018-11-06T06:48:24.516Z,5.33
2018-11-06T06:50:53.698Z,5.40
2018-11-06T06:53:22.915Z,5.40
2018-11-06T06:55:52.111Z,5.10
2018-11-06T06:58:21.329Z,4.97
2018-11-06T07:00:50.672Z,4.70
2018-11-06T07:03:19.934Z,5.10
2018-11-06T07:05:49.153Z,4.07
2018-11-06T07:08:18.383Z,5.60
2018-11-06T07:10:47.539Z,4.40
2018-11-06T07:13:16.932Z,4.37
2018-11-06T07:15:45.883Z,5.33
2018-11-06T07:18:15.365Z,6.03
2018-11-06T07:20:44.837Z,5.40
2018-11-06T07:23:14.048Z,4.70
2018-11-06T07:25:43.278Z,5.53
2018-11-06T07:28:12.471Z,5.77
2018-11-06T07:30:42.028Z,6.13
2018-11-06T07:33:11.256Z,5.47
2018-11-06T07:35:40.594Z,4.73
2018-11-06T07:38:09.841Z,4.87
2018-11-06T07:40:39.098Z,5.00
2018-11-06T07:43:08.425Z,4.83
2018-11-06T07:45:38.356Z,4.47
2018-11-06T07:48:07.560Z,4.60
2018-11-06T07:50:37.031Z,7.40
2018-11-06T07:53:06.285Z,5.37
2018-11-06T07:55:35.513Z,4.30
2018-11-06T07:58:05.238Z,4.93
2018-11-06T08:00:34.817Z,6.20
2018-11-06T08:03:04.013Z,5.87
2018-11-06T08:05:33.209Z,4.90
2018-11-06T08:08:02.457Z,3.43
2018-11-06T08:10:31.688Z,3.10
2018-11-06T08:13:00.993Z,3.00
2018-11-06T08:15:30.162Z,3.13
2018-11-06T08:17:59.475Z,3.50
2018-11-06T08:20:28.920Z,2.90
2018-11-06T08:22:58.281Z,3.20
2018-11-06T08:25:27.756Z,2.83
2018-11-06T08:27:57.128Z,3.07
2018-11-06T08:30:26.397Z,2.90
2018-11-06T08:32:55.769Z,2.83
2018-11-06T08:35:24.927Z,2.50
2018-11-06T08:37:54.141Z,2.80
2018-11-06T08:40:23.357Z,2.40
2018-11-06T08:42:52.529Z,2.53
2018-11-06T08:45:21.709Z,2.27
2018-11-06T08:47:50.921Z,2.70
2018-11-06T08:50:20.658Z,2.33
2018-11-06T08:52:49.847Z,2.30
2018-11-06T08:55:19.134Z,2.30
2018-11-06T08:57:50.192Z,2.30
2018-11-06T09:00:19.648Z,2.23
2018-11-06T09:02:49.476Z,2.03
2018-11-06T09:05:19.388Z,2.40
2018-11-06T09:07:48.647Z,2.37
2018-11-06T09:10:18.071Z,2.53
2018-11-06T09:12:47.579Z,2.30
2018-11-06T09:15:17.360Z,2.20
2018-11-06T09:17:46.806Z,1.97
2018-11-06T09:20:16.992Z,2.00
2018-11-06T09:22:46.584Z,2.00
2018-11-06T09:25:17.315Z,2.00
2018-11-06T09:27:46.650Z,2.00
2018-11-06T09:30:17.173Z,2.00
2018-11-06T09:32:46.364Z,2.10
2018-11-06T09:35:15.931Z,2.03
2018-11-06T09:37:45.702Z,2.07
2018-11-06T09:40:17.257Z,1.97
2018-11-06T09:42:46.631Z,2.00
2018-11-06T09:45:16.135Z,1.93
2018-11-06T09:47:45.028Z,2.17
2018-11-06T09:50:16.096Z,1.97
2018-11-06T09:52:46.130Z,2.00
2018-11-06T09:55:16.028Z,2.10
2018-11-06T09:57:45.811Z,1.97
2018-11-06T10:00:16.669Z,2.10
2018-11-06T10:02:45.997Z,1.70
2018-11-06T10:05:15.512Z,2.10
2018-11-06T10:07:44.834Z,1.70
2018-11-06T10:10:15.782Z,2.00
2018-11-06T10:12:45.297Z,2.10
2018-11-06T10:15:16.198Z,2.00
2018-11-06T10:17:46.660Z,1.83
2018-11-06T10:20:16.897Z,2.00
2018-11-06T10:22:46.162Z,2.20
2018-11-06T10:25:15.461Z,1.60
2018-11-06T10:27:44.700Z,2.10
2018-11-06T10:30:15.901Z,2.17
2018-11-06T10:32:45.456Z,2.20
2018-11-06T10:35:14.840Z,2.17
2018-11-06T10:37:44.623Z,2.00
2018-11-06T10:40:16.109Z,1.70
2018-11-06T10:42:45.859Z,2.00
2018-11-06T10:45:15.030Z,1.97
2018-11-06T10:47:44.995Z,1.90
2018-11-06T10:50:15.331Z,2.03
2018-11-06T10:52:45.223Z,2.00
2018-11-06T10:55:14.467Z,2.30
2018-11-06T10:57:43.925Z,1.90
2018-11-06T11:00:19.309Z,1.70
2018-11-06T11:02:53.867Z,1.90
2018-11-06T11:05:26.281Z,1.70
2018-11-06T11:07:55.553Z,1.77
2018-11-06T11:10:24.748Z,2.20
2018-11-06T11:12:53.981Z,2.00
2018-11-06T11:15:23.787Z,1.70
2018-11-06T11:17:53.350Z,1.93
2018-11-06T11:20:22.604Z,1.73
2018-11-06T11:22:51.552Z,2.20
2018-11-06T11:25:20.829Z,1.90
2018-11-06T11:27:50.054Z,1.87
2018-11-06T11:30:18.953Z,1.87
2018-11-06T11:32:48.878Z,1.83
2018-11-06T11:35:18.275Z,1.83
2018-11-06T11:37:47.611Z,1.93
2018-11-06T11:40:17.196Z,2.10
2018-11-06T11:42:46.456Z,2.00
2018-11-06T11:45:16.044Z,2.00
2018-11-06T11:47:45.272Z,2.20
2018-11-06T11:50:15.504Z,2.00
2018-11-06T11:52:44.776Z,1.80
2018-11-06T11:55:14.296Z,2.50
2018-11-06T11:57:43.540Z,2.07
2018-11-06T12:00:14.566Z,2.10
2018-11-06T12:02:44.151Z,2.30
2018-11-06T12:05:13.379Z,2.20
2018-11-06T12:07:43.609Z,2.10
2018-11-06T12:10:13.485Z,2.40
2018-11-06T12:12:42.460Z,2.17
2018-11-06T12:15:13.787Z,2.40
2018-11-06T12:17:43.929Z,2.20
2018-11-06T12:20:13.747Z,2.23
2018-11-06T12:22:43.153Z,2.00
2018-11-06T12:25:12.841Z,2.20
2018-11-06T12:27:44.560Z,2.10
2018-11-06T12:30:14.899Z,2.20
2018-11-06T12:32:44.260Z,2.17
2018-11-06T12:35:14.279Z,2.20
2018-11-06T12:37:43.653Z,2.07
2018-11-06T12:40:13.829Z,2.40
2018-11-06T12:42:43.606Z,2.10
2018-11-06T12:45:14.757Z,2.20
2018-11-06T12:47:44.439Z,2.53
2018-11-06T12:50:13.882Z,2.00
2018-11-06T12:52:43.540Z,2.13
2018-11-06T12:55:13.991Z,2.60
2018-11-06T12:57:43.206Z,2.40
2018-11-06T13:00:14.481Z,2.33
2018-11-06T13:02:43.692Z,2.33
2018-11-06T13:05:12.932Z,2.73
2018-11-06T13:07:43.375Z,2.10
2018-11-06T13:10:13.408Z,2.50
2018-11-06T13:12:43.117Z,2.07
2018-11-06T13:15:12.651Z,2.10
2018-11-06T13:17:42.114Z,2.20
2018-11-06T13:20:14.598Z,2.20
2018-11-06T13:22:44.532Z,2.27
2018-11-06T13:25:13.742Z,2.20
2018-11-06T13:27:43.651Z,2.30
2018-11-06T13:30:16.285Z,1.90
2018-11-06T13:32:46.435Z,2.40
2018-11-06T13:35:15.753Z,2.20
2018-11-06T13:37:45.038Z,2.40
2018-11-06T13:40:15.264Z,2.73
2018-11-06T13:42:45.209Z,2.27
2018-11-06T13:45:16.145Z,2.10
2018-11-06T13:47:45.486Z,2.37
2018-11-06T13:50:14.873Z,2.30
2018-11-06T13:52:44.255Z,2.10
2018-11-06T13:55:14.665Z,2.37
2018-11-06T13:57:44.842Z,2.30
2018-11-06T14:00:16.464Z,2.20
2018-11-06T14:02:46.078Z,2.43
2018-11-06T14:05:15.945Z,2.20
2018-11-06T14:07:45.309Z,2.00
2018-11-06T14:10:14.631Z,2.43
2018-11-06T14:12:44.564Z,2.10
2018-11-06T14:15:13.741Z,2.13
2018-11-06T14:17:43.077Z,2.20
2018-11-06T14:20:13.743Z,2.80
2018-11-06T14:22:43.186Z,2.70
2018-11-06T14:25:12.524Z,2.23
2018-11-06T14:27:41.972Z,2.30
2018-11-06T14:30:13.068Z,2.47
2018-11-06T14:32:42.337Z,2.40
2018-11-06T14:35:12.901Z,2.43
2018-11-06T14:37:42.680Z,2.40
2018-11-06T14:40:12.833Z,2.33
2018-11-06T14:42:42.152Z,2.30
2018-11-06T14:45:12.975Z,2.50
2018-11-06T14:47:42.706Z,2.20
2018-11-06T14:50:12.508Z,2.43
2018-11-06T14:52:42.220Z,2.20
2018-11-06T14:55:13.372Z,2.27
2018-11-06T14:57:42.555Z,2.10
2018-11-06T15:00:17.033Z,1.90
2018-11-06T15:02:48.407Z,2.10
2018-11-06T15:05:18.495Z,2.27
2018-11-06T15:07:47.666Z,2.43
2018-11-06T15:10:17.334Z,2.50
2018-11-06T15:12:47.420Z,2.30
2018-11-06T15:15:17.231Z,2.57
2018-11-06T15:17:47.540Z,2.80
2018-11-06T15:20:18.378Z,2.50
2018-11-06T15:22:47.665Z,2.30
2018-11-06T15:25:17.645Z,2.30
2018-11-06T15:27:46.941Z,2.60
2018-11-06T15:30:17.146Z,2.60
2018-11-06T15:32:46.448Z,2.60
2018-11-06T15:35:17.238Z,2.50
2018-11-06T15:37:46.896Z,2.80
2018-11-06T15:40:17.312Z,2.43
2018-11-06T15:42:46.867Z,2.50
2018-11-06T15:45:17.272Z,3.00
2018-11-06T15:47:47.161Z,2.47
2018-11-06T15:50:17.597Z,2.80
2018-11-06T15:52:48.061Z,2.63
2018-11-06T15:55:17.383Z,2.70
2018-11-06T15:57:46.596Z,7.00
2018-11-06T16:00:18.295Z,4.70
2018-11-06T16:02:49.132Z,8.00
2018-11-06T16:05:18.459Z,5.90
2018-11-06T16:07:48.307Z,4.83
2018-11-06T16:10:18.840Z,4.23
2018-11-06T16:12:48.371Z,3.27
2018-11-06T16:15:17.577Z,3.37
2018-11-06T16:17:47.297Z,3.90
2018-11-06T16:20:18.203Z,3.27
2018-11-06T16:22:47.615Z,3.23
2018-11-06T16:25:17.902Z,3.10
2018-11-06T16:27:47.752Z,3.23
2018-11-06T16:30:18.250Z,2.93
2018-11-06T16:32:47.732Z,3.30
2018-11-06T16:35:18.543Z,3.47
2018-11-06T16:37:47.979Z,4.10
2018-11-06T16:40:18.787Z,3.47
2018-11-06T16:42:48.377Z,3.83
2018-11-06T16:45:20.117Z,3.10
2018-11-06T16:47:50.042Z,3.53
2018-11-06T16:50:19.718Z,3.90
2018-11-06T16:52:48.980Z,3.70
2018-11-06T16:55:19.342Z,3.90
2018-11-06T16:57:48.656Z,4.13
2018-11-06T17:00:20.203Z,4.30
2018-11-06T17:02:49.528Z,3.90
2018-11-06T17:05:18.750Z,4.17
2018-11-06T17:07:48.431Z,4.27
2018-11-06T17:10:18.187Z,3.53
2018-11-06T17:12:47.450Z,3.87
2018-11-06T17:15:18.496Z,4.13
2018-11-06T17:17:48.632Z,4.23
2018-11-06T17:20:18.855Z,4.37
2018-11-06T17:22:48.277Z,3.80
2018-11-06T17:25:18.805Z,3.73
2018-11-06T17:27:48.600Z,3.83
2018-11-06T17:30:18.628Z,3.60
2018-11-06T17:32:48.148Z,3.50
2018-11-06T17:35:18.998Z,3.20
2018-11-06T17:37:48.282Z,3.43
2018-11-06T17:40:18.799Z,3.60
2018-11-06T17:42:48.069Z,3.30
2018-11-06T17:45:18.672Z,3.30
2018-11-06T17:47:48.520Z,3.83
2018-11-06T17:50:18.009Z,3.20
2018-11-06T17:52:47.212Z,3.77
2018-11-06T17:55:18.305Z,3.80
2018-11-06T17:57:47.676Z,4.13
2018-11-06T18:00:20.031Z,4.53
2018-11-06T18:02:49.356Z,4.50
2018-11-06T18:05:20.006Z,4.60
2018-11-06T18:07:49.759Z,4.17
2018-11-06T18:10:20.017Z,4.70
2018-11-06T18:12:49.529Z,5.30
2018-11-06T18:15:19.457Z,5.13
2018-11-06T18:17:48.796Z,4.50
2018-11-06T18:20:18.471Z,4.20
2018-11-06T18:22:47.711Z,3.90
2018-11-06T18:25:17.047Z,3.67
2018-11-06T18:27:47.025Z,4.60
2018-11-06T18:30:17.400Z,3.97
2018-11-06T18:32:46.838Z,4.20
2018-11-06T18:35:16.949Z,4.30
2018-11-06T18:37:46.274Z,4.43
2018-11-06T18:40:17.619Z,4.30
2018-11-06T18:42:47.778Z,3.50
2018-11-06T18:45:16.943Z,3.80
2018-11-06T18:47:46.236Z,3.83
2018-11-06T18:50:16.628Z,3.50
2018-11-06T18:52:47.436Z,3.70
2018-11-06T18:55:16.805Z,3.87
2018-11-06T18:57:46.546Z,3.40
2018-11-06T19:00:17.761Z,3.33
2018-11-06T19:02:48.138Z,3.87
2018-11-06T19:05:18.387Z,3.83
2018-11-06T19:07:47.596Z,3.67
2018-11-06T19:10:17.452Z,3.50
2018-11-06T19:12:46.452Z,3.33
2018-11-06T19:15:16.954Z,3.67
2018-11-06T19:17:46.776Z,5.03
2018-11-06T19:20:16.370Z,4.03
2018-11-06T19:22:46.756Z,3.70
2018-11-06T19:25:16.519Z,3.00
2018-11-06T19:27:45.832Z,3.50
2018-11-06T19:30:16.743Z,3.17
2018-11-06T19:32:46.934Z,3.50
2018-11-06T19:35:16.274Z,3.73
2018-11-06T19:37:45.477Z,3.50
2018-11-06T19:40:17.000Z,3.90
2018-11-06T19:42:47.216Z,3.70
2018-11-06T19:45:16.432Z,4.30
2018-11-06T19:47:45.689Z,4.23
2018-11-06T19:50:16.561Z,4.03
2018-11-06T19:52:46.100Z,3.67
2018-11-06T19:55:16.512Z,3.20
2018-11-06T19:57:45.781Z,3.00
2018-11-06T20:00:19.669Z,2.63
2018-11-06T20:02:50.318Z,2.50
2018-11-06T20:05:20.254Z,3.17
2018-11-06T20:07:50.575Z,4.10
2018-11-06T20:10:21.297Z,3.13
2018-11-06T20:12:51.743Z,4.20
2018-11-06T20:15:21.507Z,3.90
2018-11-06T20:17:50.809Z,3.17
2018-11-06T20:20:25.004Z,3.30
2018-11-06T20:22:54.278Z,3.00
2018-11-06T20:25:24.888Z,3.03
2018-11-06T20:27:54.576Z,2.97
2018-11-06T20:30:25.343Z,3.50
2018-11-06T20:32:54.625Z,3.50
2018-11-06T20:35:23.959Z,2.97
2018-11-06T20:37:53.511Z,3.50
2018-11-06T20:40:24.477Z,3.27
2018-11-06T20:42:53.878Z,3.40
2018-11-06T20:45:23.664Z,3.17
2018-11-06T20:47:52.876Z,3.40
2018-11-06T20:50:23.674Z,3.30
2018-11-06T20:52:52.992Z,3.33
2018-11-06T20:55:22.470Z,4.20
2018-11-06T20:57:52.160Z,3.83
2018-11-06T21:00:23.531Z,3.80
2018-11-06T21:02:53.944Z,3.70
2018-11-06T21:05:23.224Z,3.87
2018-11-06T21:07:52.589Z,4.13
2018-11-06T21:10:23.572Z,4.47
2018-11-06T21:12:52.853Z,5.23
2018-11-06T21:15:22.015Z,6.13
2018-11-06T21:17:51.351Z,6.70
2018-11-06T21:20:21.450Z,7.80
2018-11-06T21:22:50.693Z,7.37
2018-11-06T21:25:20.329Z,7.00
2018-11-06T21:27:49.684Z,7.93
2018-11-06T21:30:20.108Z,7.90
2018-11-06T21:32:52.164Z,8.00
2018-11-06T21:35:21.499Z,8.00
2018-11-06T21:37:50.757Z,9.10
2018-11-06T21:40:21.153Z,7.83
2018-11-06T21:42:50.982Z,8.43
2018-11-06T21:45:20.424Z,8.80
2018-11-06T21:47:50.448Z,8.60
2018-11-06T21:50:20.049Z,8.60
2018-11-06T21:52:49.230Z,9.20
2018-11-06T21:55:19.248Z,8.10
2018-11-06T21:57:48.486Z,8.73
2018-11-06T22:00:20.628Z,7.80
2018-11-06T22:02:50.139Z,8.73
2018-11-06T22:05:20.460Z,8.50
2018-11-06T22:07:49.800Z,8.33
2018-11-06T22:10:19.963Z,9.40
2018-11-06T22:12:49.435Z,9.73
2018-11-06T22:15:19.281Z,9.20
2018-11-06T22:17:48.555Z,10.50
2018-11-06T22:20:18.996Z,9.80
2018-11-06T22:22:48.593Z,9.87
2018-11-06T22:25:19.041Z,10.47
2018-11-06T22:27:48.597Z,10.00
2018-11-06T22:30:17.912Z,10.87
2018-11-06T22:32:47.404Z,11.10
2018-11-06T22:35:17.733Z,11.20
2018-11-06T22:37:47.761Z,12.07
2018-11-06T22:40:18.340Z,12.17
2018-11-06T22:42:47.607Z,12.97
2018-11-06T22:45:17.717Z,13.50
2018-11-06T22:47:47.300Z,12.27
2018-11-06T22:50:17.643Z,12.93
2018-11-06T22:52:47.797Z,12.33
2018-11-06T22:55:17.209Z,12.33
2018-11-06T22:57:46.510Z,13.47
2018-11-06T23:00:18.129Z,13.20
2018-11-06T23:02:47.074Z,12.80
2018-11-06T23:05:16.375Z,13.03
2018-11-06T23:08:49.281Z,13.70
2018-11-06T23:11:18.660Z,13.07
2018-11-06T23:13:47.900Z,14.00
2018-11-06T23:16:17.107Z,12.07
2018-11-06T23:18:46.444Z,13.97
2018-11-06T23:21:15.639Z,13.13
2018-11-06T23:23:44.877Z,13.40
2018-11-06T23:26:14.432Z,13.20
2018-11-06T23:28:44.234Z,13.20
2018-11-06T23:31:13.427Z,13.17
2018-11-06T23:33:43.006Z,13.80
2018-11-06T23:36:12.408Z,13.03
2018-11-06T23:38:41.654Z,12.40
2018-11-06T23:41:10.983Z,13.80
2018-11-06T23:43:40.182Z,14.27
2018-11-06T23:46:09.376Z,14.07
2018-11-06T23:48:38.621Z,14.87
2018-11-06T23:51:07.803Z,13.93
2018-11-06T23:53:37.056Z,12.77
2018-11-06T23:56:06.623Z,14.90
2018-11-06T23:58:35.838Z,12.97
